sensor_id;sensor_type;location;lat;lon;timestamp;temperature;humidity
16321;DHT22;8269;50.990;4.494;2022-08-19T00:01:40;18.60;99.90
16321;DHT22;8269;50.990;4.494;2022-08-19T00:04:08;18.60;99.90
16321;DHT22;8269;50.990;4.494;2022-08-19T00:06:36;18.40;99.90
16321;DHT22;8269;50.990;4.494;2022-08-19T00:09:04;18.30;99.90
16321;DHT22;8269;50.990;4.494;2022-08-19T00:11:30;18.30;99.90
16321;DHT22;8269;50.990;4.494;2022-08-19T00:13:56;18.30;99.90
16321;DHT22;8269;50.990;4.494;2022-08-19T00:16:23;18.30;99.90
16321;DHT22;8269;50.990;4.494;2022-08-19T00:18:49;18.40;99.90
16321;DHT22;8269;50.990;4.494;2022-08-19T00:21:15;18.30;99.90
16321;DHT22;8269;50.990;4.494;2022-08-19T00:23:42;18.30;99.90
16321;DHT22;8269;50.990;4.494;2022-08-19T00:26:09;18.30;99.90
16321;DHT22;8269;50.990;4.494;2022-08-19T00:28:35;18.30;99.90
16321;DHT22;8269;50.990;4.494;2022-08-19T00:31:05;18.30;99.90
16321;DHT22;8269;50.990;4.494;2022-08-19T00:33:31;18.30;99.90
16321;DHT22;8269;50.990;4.494;2022-08-19T00:35:58;18.30;99.90
16321;DHT22;8269;50.990;4.494;2022-08-19T00:38:24;18.30;99.90
16321;DHT22;8269;50.990;4.494;2022-08-19T00:40:50;18.30;99.90
16321;DHT22;8269;50.990;4.494;2022-08-19T00:43:20;18.30;99.90
16321;DHT22;8269;50.990;4.494;2022-08-19T00:45:46;18.20;99.90
16321;DHT22;8269;50.990;4.494;2022-08-19T00:48:14;18.30;99.90
16321;DHT22;8269;50.990;4.494;2022-08-19T00:50:43;18.20;99.90
16321;DHT22;8269;50.990;4.494;2022-08-19T00:53:11;18.20;99.90
16321;DHT22;8269;50.990;4.494;2022-08-19T00:55:38;18.10;99.90
16321;DHT22;8269;50.990;4.494;2022-08-19T00:58:07;18.10;99.90
16321;DHT22;8269;50.990;4.494;2022-08-19T01:00:34;18.10;99.90
16321;DHT22;8269;50.990;4.494;2022-08-19T01:03:05;18.10;99.90
16321;DHT22;8269;50.990;4.494;2022-08-19T01:05:32;18.10;99.90
16321;DHT22;8269;50.990;4.494;2022-08-19T01:08:00;18.10;99.90
16321;DHT22;8269;50.990;4.494;2022-08-19T01:10:30;18.10;99.90
16321;DHT22;8269;50.990;4.494;2022-08-19T01:12:58;18.10;99.90
16321;DHT22;8269;50.990;4.494;2022-08-19T01:15:29;18.10;99.90
16321;DHT22;8269;50.990;4.494;2022-08-19T01:17:55;18.00;99.90
16321;DHT22;8269;50.990;4.494;2022-08-19T01:20:23;18.10;99.90
16321;DHT22;8269;50.990;4.494;2022-08-19T01:22:55;18.10;99.90
16321;DHT22;8269;50.990;4.494;2022-08-19T01:25:29;18.10;99.90
16321;DHT22;8269;50.990;4.494;2022-08-19T01:27:55;18.00;99.90
16321;DHT22;8269;50.990;4.494;2022-08-19T01:30:25;18.00;99.90
16321;DHT22;8269;50.990;4.494;2022-08-19T01:32:53;18.00;99.90
16321;DHT22;8269;50.990;4.494;2022-08-19T01:35:19;18.00;99.90
16321;DHT22;8269;50.990;4.494;2022-08-19T01:37:51;17.90;99.90
16321;DHT22;8269;50.990;4.494;2022-08-19T01:40:19;17.90;99.90
16321;DHT22;8269;50.990;4.494;2022-08-19T01:42:50;17.90;99.90
16321;DHT22;8269;50.990;4.494;2022-08-19T01:45:17;17.90;99.90
16321;DHT22;8269;50.990;4.494;2022-08-19T01:47:43;18.00;99.90
16321;DHT22;8269;50.990;4.494;2022-08-19T01:50:10;18.00;99.90
16321;DHT22;8269;50.990;4.494;2022-08-19T01:52:38;17.90;99.90
16321;DHT22;8269;50.990;4.494;2022-08-19T01:55:06;18.00;99.90
16321;DHT22;8269;50.990;4.494;2022-08-19T01:57:32;18.00;99.90
16321;DHT22;8269;50.990;4.494;2022-08-19T01:59:57;17.90;99.90
16321;DHT22;8269;50.990;4.494;2022-08-19T02:02:24;17.90;99.90
16321;DHT22;8269;50.990;4.494;2022-08-19T02:04:50;17.80;99.90
16321;DHT22;8269;50.990;4.494;2022-08-19T02:07:20;17.80;99.90
16321;DHT22;8269;50.990;4.494;2022-08-19T02:09:47;17.80;99.90
16321;DHT22;8269;50.990;4.494;2022-08-19T02:12:14;17.70;99.90
16321;DHT22;8269;50.990;4.494;2022-08-19T02:14:40;17.70;99.90
16321;DHT22;8269;50.990;4.494;2022-08-19T02:17:06;17.70;99.90
16321;DHT22;8269;50.990;4.494;2022-08-19T02:19:32;17.70;99.90
16321;DHT22;8269;50.990;4.494;2022-08-19T02:21:58;17.60;99.90
16321;DHT22;8269;50.990;4.494;2022-08-19T02:24:26;17.60;99.90
16321;DHT22;8269;50.990;4.494;2022-08-19T02:26:52;17.60;99.90
16321;DHT22;8269;50.990;4.494;2022-08-19T02:29:18;17.60;99.90
16321;DHT22;8269;50.990;4.494;2022-08-19T02:31:43;17.60;99.90
16321;DHT22;8269;50.990;4.494;2022-08-19T02:34:09;17.60;99.90
16321;DHT22;8269;50.990;4.494;2022-08-19T02:36:35;17.50;99.90
16321;DHT22;8269;50.990;4.494;2022-08-19T02:39:01;17.50;99.90
16321;DHT22;8269;50.990;4.494;2022-08-19T02:41:29;17.60;99.90
16321;DHT22;8269;50.990;4.494;2022-08-19T02:43:57;17.50;99.90
16321;DHT22;8269;50.990;4.494;2022-08-19T02:46:29;17.60;99.90
16321;DHT22;8269;50.990;4.494;2022-08-19T02:48:57;17.50;99.90
16321;DHT22;8269;50.990;4.494;2022-08-19T02:51:28;17.50;99.90
16321;DHT22;8269;50.990;4.494;2022-08-19T02:53:56;17.50;99.90
16321;DHT22;8269;50.990;4.494;2022-08-19T02:56:22;17.40;99.90
16321;DHT22;8269;50.990;4.494;2022-08-19T02:58:49;17.40;99.90
16321;DHT22;8269;50.990;4.494;2022-08-19T03:03:47;17.30;99.90
16321;DHT22;8269;50.990;4.494;2022-08-19T03:06:15;17.20;99.90
16321;DHT22;8269;50.990;4.494;2022-08-19T03:08:42;17.20;99.90
16321;DHT22;8269;50.990;4.494;2022-08-19T03:11:23;17.20;99.90
16321;DHT22;8269;50.990;4.494;2022-08-19T03:13:49;17.20;99.90
16321;DHT22;8269;50.990;4.494;2022-08-19T03:16:17;17.20;99.90
16321;DHT22;8269;50.990;4.494;2022-08-19T03:18:43;17.20;99.90
16321;DHT22;8269;50.990;4.494;2022-08-19T03:21:09;17.10;99.90
16321;DHT22;8269;50.990;4.494;2022-08-19T03:23:39;17.00;99.90
16321;DHT22;8269;50.990;4.494;2022-08-19T03:26:05;17.10;99.90
16321;DHT22;8269;50.990;4.494;2022-08-19T03:28:31;17.10;99.90
16321;DHT22;8269;50.990;4.494;2022-08-19T03:31:00;17.00;99.90
16321;DHT22;8269;50.990;4.494;2022-08-19T03:33:27;17.00;99.90
16321;DHT22;8269;50.990;4.494;2022-08-19T03:36:14;17.00;99.90
16321;DHT22;8269;50.990;4.494;2022-08-19T03:38:43;16.90;99.90
16321;DHT22;8269;50.990;4.494;2022-08-19T03:41:13;16.90;99.90
16321;DHT22;8269;50.990;4.494;2022-08-19T03:43:41;17.00;99.90
16321;DHT22;8269;50.990;4.494;2022-08-19T03:46:11;17.00;99.90
16321;DHT22;8269;50.990;4.494;2022-08-19T03:48:39;17.00;99.90
16321;DHT22;8269;50.990;4.494;2022-08-19T03:51:05;16.90;99.90
16321;DHT22;8269;50.990;4.494;2022-08-19T03:53:33;16.90;99.90
16321;DHT22;8269;50.990;4.494;2022-08-19T03:56:00;16.80;99.90
16321;DHT22;8269;50.990;4.494;2022-08-19T03:58:28;16.80;99.90
16321;DHT22;8269;50.990;4.494;2022-08-19T04:00:57;16.90;99.90
16321;DHT22;8269;50.990;4.494;2022-08-19T04:03:26;16.80;99.90
16321;DHT22;8269;50.990;4.494;2022-08-19T04:05:53;16.80;99.90
16321;DHT22;8269;50.990;4.494;2022-08-19T04:08:19;16.70;99.90
16321;DHT22;8269;50.990;4.494;2022-08-19T04:10:48;16.70;99.90
16321;DHT22;8269;50.990;4.494;2022-08-19T04:13:16;16.70;99.90
16321;DHT22;8269;50.990;4.494;2022-08-19T04:15:43;16.70;99.90
16321;DHT22;8269;50.990;4.494;2022-08-19T04:18:10;16.70;99.90
16321;DHT22;8269;50.990;4.494;2022-08-19T04:20:46;16.60;99.90
16321;DHT22;8269;50.990;4.494;2022-08-19T04:23:14;16.60;99.90
16321;DHT22;8269;50.990;4.494;2022-08-19T04:25:42;16.70;99.90
16321;DHT22;8269;50.990;4.494;2022-08-19T04:28:09;16.70;99.90
16321;DHT22;8269;50.990;4.494;2022-08-19T04:30:45;16.70;99.90
16321;DHT22;8269;50.990;4.494;2022-08-19T04:33:13;16.60;99.90
16321;DHT22;8269;50.990;4.494;2022-08-19T04:35:44;16.60;99.90
16321;DHT22;8269;50.990;4.494;2022-08-19T04:38:11;16.60;99.90
16321;DHT22;8269;50.990;4.494;2022-08-19T04:40:46;16.60;99.90
16321;DHT22;8269;50.990;4.494;2022-08-19T04:43:33;16.60;99.90
16321;DHT22;8269;50.990;4.494;2022-08-19T04:46:05;16.60;99.90
16321;DHT22;8269;50.990;4.494;2022-08-19T04:48:30;16.60;99.90
16321;DHT22;8269;50.990;4.494;2022-08-19T04:50:58;16.60;99.90
16321;DHT22;8269;50.990;4.494;2022-08-19T04:53:29;16.60;99.90
16321;DHT22;8269;50.990;4.494;2022-08-19T04:55:58;16.60;99.90
16321;DHT22;8269;50.990;4.494;2022-08-19T04:58:26;16.50;99.90
16321;DHT22;8269;50.990;4.494;2022-08-19T05:00:53;16.60;99.90
16321;DHT22;8269;50.990;4.494;2022-08-19T05:03:19;16.50;99.90
16321;DHT22;8269;50.990;4.494;2022-08-19T05:05:46;16.50;99.90
16321;DHT22;8269;50.990;4.494;2022-08-19T05:08:15;16.70;99.90
16321;DHT22;8269;50.990;4.494;2022-08-19T05:10:47;16.60;99.90
16321;DHT22;8269;50.990;4.494;2022-08-19T05:13:14;16.60;99.90
16321;DHT22;8269;50.990;4.494;2022-08-19T05:15:40;16.60;99.90
16321;DHT22;8269;50.990;4.494;2022-08-19T05:18:06;16.70;99.90
16321;DHT22;8269;50.990;4.494;2022-08-19T05:20:50;16.70;99.90
16321;DHT22;8269;50.990;4.494;2022-08-19T05:23:34;16.80;99.90
16321;DHT22;8269;50.990;4.494;2022-08-19T05:25:59;16.90;99.90
16321;DHT22;8269;50.990;4.494;2022-08-19T05:28:25;17.00;99.90
16321;DHT22;8269;50.990;4.494;2022-08-19T05:30:51;17.10;99.90
16321;DHT22;8269;50.990;4.494;2022-08-19T05:33:17;17.30;99.90
16321;DHT22;8269;50.990;4.494;2022-08-19T05:35:43;17.40;99.90
16321;DHT22;8269;50.990;4.494;2022-08-19T05:38:10;17.50;99.90
16321;DHT22;8269;50.990;4.494;2022-08-19T05:40:38;17.50;99.90
16321;DHT22;8269;50.990;4.494;2022-08-19T05:43:07;17.60;99.90
16321;DHT22;8269;50.990;4.494;2022-08-19T05:45:39;17.60;99.90
16321;DHT22;8269;50.990;4.494;2022-08-19T05:48:05;17.80;99.90
16321;DHT22;8269;50.990;4.494;2022-08-19T05:50:30;17.90;99.90
16321;DHT22;8269;50.990;4.494;2022-08-19T05:52:56;17.90;99.90
16321;DHT22;8269;50.990;4.494;2022-08-19T05:55:22;17.90;99.90
16321;DHT22;8269;50.990;4.494;2022-08-19T05:57:50;18.00;99.90
16321;DHT22;8269;50.990;4.494;2022-08-19T06:00:16;18.00;99.90
16321;DHT22;8269;50.990;4.494;2022-08-19T06:02:41;18.10;99.90
16321;DHT22;8269;50.990;4.494;2022-08-19T06:05:08;18.20;99.90
16321;DHT22;8269;50.990;4.494;2022-08-19T06:07:35;18.30;99.90
16321;DHT22;8269;50.990;4.494;2022-08-19T06:10:01;18.30;99.90
16321;DHT22;8269;50.990;4.494;2022-08-19T06:12:33;18.40;99.90
16321;DHT22;8269;50.990;4.494;2022-08-19T06:15:04;18.50;99.90
16321;DHT22;8269;50.990;4.494;2022-08-19T06:17:31;18.60;99.90
16321;DHT22;8269;50.990;4.494;2022-08-19T06:19:57;18.80;99.90
16321;DHT22;8269;50.990;4.494;2022-08-19T06:22:23;18.80;99.90
16321;DHT22;8269;50.990;4.494;2022-08-19T06:24:49;18.70;99.90
16321;DHT22;8269;50.990;4.494;2022-08-19T06:27:18;18.70;99.90
16321;DHT22;8269;50.990;4.494;2022-08-19T06:29:44;18.70;99.90
16321;DHT22;8269;50.990;4.494;2022-08-19T06:32:14;18.60;99.90
16321;DHT22;8269;50.990;4.494;2022-08-19T06:34:40;18.80;99.90
16321;DHT22;8269;50.990;4.494;2022-08-19T06:37:06;18.90;99.90
16321;DHT22;8269;50.990;4.494;2022-08-19T06:39:35;18.90;99.90
16321;DHT22;8269;50.990;4.494;2022-08-19T06:42:03;19.00;99.90
16321;DHT22;8269;50.990;4.494;2022-08-19T06:44:33;19.00;99.90
16321;DHT22;8269;50.990;4.494;2022-08-19T06:47:05;19.00;99.90
16321;DHT22;8269;50.990;4.494;2022-08-19T06:49:31;19.10;99.90
16321;DHT22;8269;50.990;4.494;2022-08-19T06:51:57;19.10;99.90
16321;DHT22;8269;50.990;4.494;2022-08-19T06:54:24;19.20;99.90
16321;DHT22;8269;50.990;4.494;2022-08-19T06:56:51;19.30;99.90
16321;DHT22;8269;50.990;4.494;2022-08-19T06:59:19;19.40;99.90
16321;DHT22;8269;50.990;4.494;2022-08-19T07:01:48;19.40;99.90
16321;DHT22;8269;50.990;4.494;2022-08-19T07:04:16;19.40;99.90
16321;DHT22;8269;50.990;4.494;2022-08-19T07:06:43;19.40;99.90
16321;DHT22;8269;50.990;4.494;2022-08-19T07:09:11;19.50;99.90
16321;DHT22;8269;50.990;4.494;2022-08-19T07:11:37;19.60;99.90
16321;DHT22;8269;50.990;4.494;2022-08-19T07:14:03;19.70;99.90
16321;DHT22;8269;50.990;4.494;2022-08-19T07:16:31;19.80;99.90
16321;DHT22;8269;50.990;4.494;2022-08-19T07:18:57;19.80;99.90
16321;DHT22;8269;50.990;4.494;2022-08-19T07:21:29;19.90;99.90
16321;DHT22;8269;50.990;4.494;2022-08-19T07:23:56;20.00;99.90
16321;DHT22;8269;50.990;4.494;2022-08-19T07:26:27;20.00;99.90
16321;DHT22;8269;50.990;4.494;2022-08-19T07:28:53;20.00;99.90
16321;DHT22;8269;50.990;4.494;2022-08-19T07:31:22;20.00;99.90
16321;DHT22;8269;50.990;4.494;2022-08-19T07:33:50;20.60;99.90
16321;DHT22;8269;50.990;4.494;2022-08-19T07:36:19;20.90;98.70
16321;DHT22;8269;50.990;4.494;2022-08-19T07:38:47;20.80;98.30
16321;DHT22;8269;50.990;4.494;2022-08-19T07:41:17;20.60;98.60
16321;DHT22;8269;50.990;4.494;2022-08-19T07:43:43;20.40;99.20
16321;DHT22;8269;50.990;4.494;2022-08-19T07:46:10;20.40;99.70
16321;DHT22;8269;50.990;4.494;2022-08-19T07:48:36;20.50;99.80
16321;DHT22;8269;50.990;4.494;2022-08-19T07:51:04;20.60;99.80
16321;DHT22;8269;50.990;4.494;2022-08-19T07:53:31;20.60;99.60
16321;DHT22;8269;50.990;4.494;2022-08-19T07:55:58;20.50;99.60
16321;DHT22;8269;50.990;4.494;2022-08-19T07:58:31;20.40;99.90
16321;DHT22;8269;50.990;4.494;2022-08-19T08:00:58;20.50;99.90
16321;DHT22;8269;50.990;4.494;2022-08-19T08:03:24;20.60;99.80
16321;DHT22;8269;50.990;4.494;2022-08-19T08:06:11;20.80;99.50
16321;DHT22;8269;50.990;4.494;2022-08-19T08:08:55;20.90;99.10
16321;DHT22;8269;50.990;4.494;2022-08-19T08:11:37;21.10;99.30
16321;DHT22;8269;50.990;4.494;2022-08-19T08:14:03;21.30;98.30
16321;DHT22;8269;50.990;4.494;2022-08-19T08:16:31;21.40;97.80
16321;DHT22;8269;50.990;4.494;2022-08-19T08:18:58;21.40;97.30
16321;DHT22;8269;50.990;4.494;2022-08-19T08:21:24;21.70;97.30
16321;DHT22;8269;50.990;4.494;2022-08-19T08:23:50;22.10;96.00
16321;DHT22;8269;50.990;4.494;2022-08-19T08:26:20;22.40;94.80
16321;DHT22;8269;50.990;4.494;2022-08-19T08:28:46;22.50;94.30
16321;DHT22;8269;50.990;4.494;2022-08-19T08:31:13;22.50;94.10
16321;DHT22;8269;50.990;4.494;2022-08-19T08:33:39;22.40;93.90
16321;DHT22;8269;50.990;4.494;2022-08-19T08:36:08;22.10;95.00
16321;DHT22;8269;50.990;4.494;2022-08-19T08:38:35;22.10;94.90
16321;DHT22;8269;50.990;4.494;2022-08-19T08:41:13;22.00;95.00
16321;DHT22;8269;50.990;4.494;2022-08-19T08:43:45;21.90;95.20
16321;DHT22;8269;50.990;4.494;2022-08-19T08:46:42;21.90;95.60
16321;DHT22;8269;50.990;4.494;2022-08-19T08:52:05;21.80;95.90
16321;DHT22;8269;50.990;4.494;2022-08-19T08:54:43;21.80;95.90
16321;DHT22;8269;50.990;4.494;2022-08-19T08:57:21;21.90;95.90
16321;DHT22;8269;50.990;4.494;2022-08-19T08:59:51;22.00;95.80
16321;DHT22;8269;50.990;4.494;2022-08-19T09:02:19;22.00;95.70
16321;DHT22;8269;50.990;4.494;2022-08-19T09:04:45;22.10;95.70
16321;DHT22;8269;50.990;4.494;2022-08-19T09:09:52;22.30;95.00
16321;DHT22;8269;50.990;4.494;2022-08-19T09:15:34;22.30;95.10
16321;DHT22;8269;50.990;4.494;2022-08-19T09:18:03;22.40;94.60
16321;DHT22;8269;50.990;4.494;2022-08-19T09:20:29;22.30;94.60
16321;DHT22;8269;50.990;4.494;2022-08-19T09:22:56;22.30;94.80
16321;DHT22;8269;50.990;4.494;2022-08-19T09:25:22;22.30;95.00
16321;DHT22;8269;50.990;4.494;2022-08-19T09:27:49;22.30;95.10
16321;DHT22;8269;50.990;4.494;2022-08-19T09:30:23;22.30;95.00
16321;DHT22;8269;50.990;4.494;2022-08-19T09:32:49;22.40;95.00
16321;DHT22;8269;50.990;4.494;2022-08-19T09:35:18;22.50;94.80
16321;DHT22;8269;50.990;4.494;2022-08-19T09:37:43;22.30;94.80
16321;DHT22;8269;50.990;4.494;2022-08-19T09:40:10;22.40;95.10
16321;DHT22;8269;50.990;4.494;2022-08-19T09:42:36;22.50;95.00
16321;DHT22;8269;50.990;4.494;2022-08-19T09:45:03;22.70;94.70
16321;DHT22;8269;50.990;4.494;2022-08-19T09:47:29;22.70;94.10
16321;DHT22;8269;50.990;4.494;2022-08-19T09:49:55;22.60;94.10
16321;DHT22;8269;50.990;4.494;2022-08-19T09:52:21;22.60;94.10
16321;DHT22;8269;50.990;4.494;2022-08-19T09:54:46;22.50;94.20
16321;DHT22;8269;50.990;4.494;2022-08-19T09:57:12;22.60;94.40
16321;DHT22;8269;50.990;4.494;2022-08-19T09:59:38;22.80;94.30
16321;DHT22;8269;50.990;4.494;2022-08-19T10:02:04;22.90;93.80
16321;DHT22;8269;50.990;4.494;2022-08-19T10:04:30;23.10;93.60
16321;DHT22;8269;50.990;4.494;2022-08-19T10:07:14;23.10;93.00
16321;DHT22;8269;50.990;4.494;2022-08-19T10:09:40;23.10;93.10
16321;DHT22;8269;50.990;4.494;2022-08-19T10:12:07;23.30;92.80
16321;DHT22;8269;50.990;4.494;2022-08-19T10:14:33;23.40;92.20
16321;DHT22;8269;50.990;4.494;2022-08-19T10:16:59;23.40;92.00
16321;DHT22;8269;50.990;4.494;2022-08-19T10:19:26;23.30;92.00
16321;DHT22;8269;50.990;4.494;2022-08-19T10:21:57;23.20;92.30
16321;DHT22;8269;50.990;4.494;2022-08-19T10:24:24;23.30;92.30
16321;DHT22;8269;50.990;4.494;2022-08-19T10:26:51;23.40;92.10
16321;DHT22;8269;50.990;4.494;2022-08-19T10:29:17;23.50;91.90
16321;DHT22;8269;50.990;4.494;2022-08-19T10:31:42;23.50;91.70
16321;DHT22;8269;50.990;4.494;2022-08-19T10:34:08;23.50;91.60
16321;DHT22;8269;50.990;4.494;2022-08-19T10:36:36;23.60;91.50
16321;DHT22;8269;50.990;4.494;2022-08-19T10:39:07;23.80;91.40
16321;DHT22;8269;50.990;4.494;2022-08-19T10:41:35;24.10;90.80
16321;DHT22;8269;50.990;4.494;2022-08-19T10:44:07;24.20;90.70
16321;DHT22;8269;50.990;4.494;2022-08-19T10:49:02;24.40;87.50
16321;DHT22;8269;50.990;4.494;2022-08-19T10:51:28;24.50;88.10
16321;DHT22;8269;50.990;4.494;2022-08-19T10:54:12;24.80;86.60
16321;DHT22;8269;50.990;4.494;2022-08-19T10:56:39;24.90;85.50
16321;DHT22;8269;50.990;4.494;2022-08-19T11:01:47;24.80;84.10
16321;DHT22;8269;50.990;4.494;2022-08-19T11:04:14;24.70;85.30
16321;DHT22;8269;50.990;4.494;2022-08-19T11:06:44;24.60;84.50
16321;DHT22;8269;50.990;4.494;2022-08-19T11:09:14;24.50;85.40
16321;DHT22;8269;50.990;4.494;2022-08-19T11:11:41;24.50;85.70
16321;DHT22;8269;50.990;4.494;2022-08-19T11:14:11;24.60;85.80
16321;DHT22;8269;50.990;4.494;2022-08-19T11:16:38;24.60;85.70
16321;DHT22;8269;50.990;4.494;2022-08-19T11:19:05;24.40;86.60
16321;DHT22;8269;50.990;4.494;2022-08-19T11:21:37;24.50;87.10
16321;DHT22;8269;50.990;4.494;2022-08-19T11:24:15;24.60;86.90
16321;DHT22;8269;50.990;4.494;2022-08-19T11:26:44;24.60;86.80
16321;DHT22;8269;50.990;4.494;2022-08-19T11:29:11;24.40;86.60
16321;DHT22;8269;50.990;4.494;2022-08-19T11:31:43;24.20;87.60
16321;DHT22;8269;50.990;4.494;2022-08-19T11:34:12;24.10;88.60
16321;DHT22;8269;50.990;4.494;2022-08-19T11:36:40;23.80;89.80
16321;DHT22;8269;50.990;4.494;2022-08-19T11:39:07;23.70;90.30
16321;DHT22;8269;50.990;4.494;2022-08-19T11:41:34;23.50;90.80
16321;DHT22;8269;50.990;4.494;2022-08-19T11:44:00;23.40;91.20
16321;DHT22;8269;50.990;4.494;2022-08-19T11:46:28;23.30;91.60
16321;DHT22;8269;50.990;4.494;2022-08-19T11:48:58;23.20;91.70
16321;DHT22;8269;50.990;4.494;2022-08-19T11:51:25;23.30;92.20
16321;DHT22;8269;50.990;4.494;2022-08-19T11:53:52;23.50;92.10
16321;DHT22;8269;50.990;4.494;2022-08-19T11:56:19;23.80;91.40
16321;DHT22;8269;50.990;4.494;2022-08-19T11:58:45;24.00;91.40
16321;DHT22;8269;50.990;4.494;2022-08-19T12:01:13;24.20;91.00
16321;DHT22;8269;50.990;4.494;2022-08-19T12:03:42;24.40;90.70
16321;DHT22;8269;50.990;4.494;2022-08-19T12:06:11;24.60;90.10
16321;DHT22;8269;50.990;4.494;2022-08-19T12:08:42;24.80;88.40
16321;DHT22;8269;50.990;4.494;2022-08-19T12:11:08;25.00;86.60
16321;DHT22;8269;50.990;4.494;2022-08-19T12:13:36;25.10;85.80
16321;DHT22;8269;50.990;4.494;2022-08-19T12:16:16;25.10;85.30
16321;DHT22;8269;50.990;4.494;2022-08-19T12:18:42;25.10;85.20
16321;DHT22;8269;50.990;4.494;2022-08-19T12:21:12;25.30;84.60
16321;DHT22;8269;50.990;4.494;2022-08-19T12:23:40;25.40;84.10
16321;DHT22;8269;50.990;4.494;2022-08-19T12:26:06;25.40;83.10
16321;DHT22;8269;50.990;4.494;2022-08-19T12:28:32;25.40;83.10
16321;DHT22;8269;50.990;4.494;2022-08-19T12:30:57;25.40;83.50
16321;DHT22;8269;50.990;4.494;2022-08-19T12:33:23;25.50;83.20
16321;DHT22;8269;50.990;4.494;2022-08-19T12:35:52;25.50;82.80
16321;DHT22;8269;50.990;4.494;2022-08-19T12:38:18;25.30;82.60
16321;DHT22;8269;50.990;4.494;2022-08-19T12:40:47;25.10;83.00
16321;DHT22;8269;50.990;4.494;2022-08-19T12:43:14;25.10;83.70
16321;DHT22;8269;50.990;4.494;2022-08-19T12:45:41;25.10;83.20
16321;DHT22;8269;50.990;4.494;2022-08-19T12:48:08;25.20;83.20
16321;DHT22;8269;50.990;4.494;2022-08-19T12:50:34;25.20;82.60
16321;DHT22;8269;50.990;4.494;2022-08-19T12:53:00;25.30;83.40
16321;DHT22;8269;50.990;4.494;2022-08-19T12:55:25;25.60;81.00
16321;DHT22;8269;50.990;4.494;2022-08-19T12:57:53;25.70;81.30
16321;DHT22;8269;50.990;4.494;2022-08-19T13:00:20;25.90;79.50
16321;DHT22;8269;50.990;4.494;2022-08-19T13:02:50;25.90;78.80
16321;DHT22;8269;50.990;4.494;2022-08-19T13:05:22;25.90;78.90
16321;DHT22;8269;50.990;4.494;2022-08-19T13:07:49;26.20;78.60
16321;DHT22;8269;50.990;4.494;2022-08-19T13:10:18;26.40;76.80
16321;DHT22;8269;50.990;4.494;2022-08-19T13:12:46;26.60;76.40
16321;DHT22;8269;50.990;4.494;2022-08-19T13:15:13;26.50;75.90
16321;DHT22;8269;50.990;4.494;2022-08-19T13:17:39;26.40;74.90
16321;DHT22;8269;50.990;4.494;2022-08-19T13:20:09;26.40;75.60
16321;DHT22;8269;50.990;4.494;2022-08-19T13:22:37;26.50;75.40
16321;DHT22;8269;50.990;4.494;2022-08-19T13:25:04;26.40;75.00
16321;DHT22;8269;50.990;4.494;2022-08-19T13:27:31;26.30;75.20
16321;DHT22;8269;50.990;4.494;2022-08-19T13:29:56;26.10;75.30
16321;DHT22;8269;50.990;4.494;2022-08-19T13:32:42;26.00;76.30
16321;DHT22;8269;50.990;4.494;2022-08-19T13:35:26;26.00;76.50
16321;DHT22;8269;50.990;4.494;2022-08-19T13:37:52;26.20;76.10
16321;DHT22;8269;50.990;4.494;2022-08-19T13:40:20;26.30;75.60
16321;DHT22;8269;50.990;4.494;2022-08-19T13:42:51;26.10;75.30
16321;DHT22;8269;50.990;4.494;2022-08-19T13:45:20;26.00;75.80
16321;DHT22;8269;50.990;4.494;2022-08-19T13:47:52;26.10;76.20
16321;DHT22;8269;50.990;4.494;2022-08-19T13:50:25;26.10;76.20
16321;DHT22;8269;50.990;4.494;2022-08-19T13:52:52;26.00;75.80
16321;DHT22;8269;50.990;4.494;2022-08-19T13:55:18;25.90;75.90
16321;DHT22;8269;50.990;4.494;2022-08-19T13:57:44;25.90;76.20
16321;DHT22;8269;50.990;4.494;2022-08-19T14:00:15;26.10;76.60
16321;DHT22;8269;50.990;4.494;2022-08-19T14:02:44;26.60;75.20
16321;DHT22;8269;50.990;4.494;2022-08-19T14:05:13;26.70;74.20
16321;DHT22;8269;50.990;4.494;2022-08-19T14:07:39;26.90;72.70
16321;DHT22;8269;50.990;4.494;2022-08-19T14:10:08;26.70;72.80
16321;DHT22;8269;50.990;4.494;2022-08-19T14:12:34;26.70;73.00
16321;DHT22;8269;50.990;4.494;2022-08-19T14:15:01;26.60;73.00
16321;DHT22;8269;50.990;4.494;2022-08-19T14:17:28;26.50;72.90
16321;DHT22;8269;50.990;4.494;2022-08-19T14:19:58;26.40;73.40
16321;DHT22;8269;50.990;4.494;2022-08-19T14:22:26;26.40;73.30
16321;DHT22;8269;50.990;4.494;2022-08-19T14:24:51;26.40;73.50
16321;DHT22;8269;50.990;4.494;2022-08-19T14:27:17;26.30;73.70
16321;DHT22;8269;50.990;4.494;2022-08-19T14:29:44;26.30;73.90
16321;DHT22;8269;50.990;4.494;2022-08-19T14:32:10;26.50;73.40
16321;DHT22;8269;50.990;4.494;2022-08-19T14:34:36;26.30;72.90
16321;DHT22;8269;50.990;4.494;2022-08-19T14:37:02;26.20;73.60
16321;DHT22;8269;50.990;4.494;2022-08-19T14:39:28;26.00;75.00
16321;DHT22;8269;50.990;4.494;2022-08-19T14:41:53;25.90;77.20
16321;DHT22;8269;50.990;4.494;2022-08-19T14:44:19;25.80;77.90
16321;DHT22;8269;50.990;4.494;2022-08-19T14:46:45;25.60;78.40
16321;DHT22;8269;50.990;4.494;2022-08-19T14:49:10;25.40;79.70
16321;DHT22;8269;50.990;4.494;2022-08-19T14:51:36;25.10;80.70
16321;DHT22;8269;50.990;4.494;2022-08-19T14:54:01;25.00;81.40
16321;DHT22;8269;50.990;4.494;2022-08-19T14:56:29;24.90;81.70
16321;DHT22;8269;50.990;4.494;2022-08-19T14:58:56;24.80;82.10
16321;DHT22;8269;50.990;4.494;2022-08-19T15:01:25;24.60;84.00
16321;DHT22;8269;50.990;4.494;2022-08-19T15:03:51;24.40;89.10
16321;DHT22;8269;50.990;4.494;2022-08-19T15:06:20;24.20;89.80
16321;DHT22;8269;50.990;4.494;2022-08-19T15:08:47;24.20;89.60
16321;DHT22;8269;50.990;4.494;2022-08-19T15:11:18;24.30;89.40
16321;DHT22;8269;50.990;4.494;2022-08-19T15:13:46;24.50;87.50
16321;DHT22;8269;50.990;4.494;2022-08-19T15:16:12;24.60;86.50
16321;DHT22;8269;50.990;4.494;2022-08-19T15:18:40;24.60;86.70
16321;DHT22;8269;50.990;4.494;2022-08-19T15:21:13;24.80;86.80
16321;DHT22;8269;50.990;4.494;2022-08-19T15:23:40;24.70;85.10
16321;DHT22;8269;50.990;4.494;2022-08-19T15:26:06;24.70;85.90
16321;DHT22;8269;50.990;4.494;2022-08-19T15:28:36;24.80;86.00
16321;DHT22;8269;50.990;4.494;2022-08-19T15:31:02;25.00;86.00
16321;DHT22;8269;50.990;4.494;2022-08-19T15:33:28;25.10;85.00
16321;DHT22;8269;50.990;4.494;2022-08-19T15:35:55;25.10;84.90
16321;DHT22;8269;50.990;4.494;2022-08-19T15:38:23;25.00;84.50
16321;DHT22;8269;50.990;4.494;2022-08-19T15:40:51;24.90;84.50
16321;DHT22;8269;50.990;4.494;2022-08-19T15:43:19;24.80;85.00
16321;DHT22;8269;50.990;4.494;2022-08-19T15:45:48;24.70;85.60
16321;DHT22;8269;50.990;4.494;2022-08-19T15:48:13;24.70;86.10
16321;DHT22;8269;50.990;4.494;2022-08-19T15:50:39;24.70;85.50
16321;DHT22;8269;50.990;4.494;2022-08-19T15:53:08;24.70;85.70
16321;DHT22;8269;50.990;4.494;2022-08-19T15:55:41;24.80;85.60
16321;DHT22;8269;50.990;4.494;2022-08-19T15:58:10;24.70;85.60
16321;DHT22;8269;50.990;4.494;2022-08-19T16:01:03;24.60;85.80
16321;DHT22;8269;50.990;4.494;2022-08-19T16:03:48;24.50;86.50
16321;DHT22;8269;50.990;4.494;2022-08-19T16:06:33;24.40;87.60
16321;DHT22;8269;50.990;4.494;2022-08-19T16:09:02;24.40;86.60